TimeCST,TemperatureF,Dew PointF,Humidity,Sea Level PressureIn,VisibilityMPH,Wind Direction,Wind SpeedMPH,Gust SpeedMPH,PrecipitationIn,Events,Conditions,WindDirDegrees,DateUTC
12:53 AM,42.8,32.0,66,30.35,10.0,ENE,6.9,-,N/A,,Clear,70,2012-11-18 06:53:00
1:53 AM,41.0,32.0,70,30.36,10.0,ENE,3.5,-,N/A,,Clear,70,2012-11-18 07:53:00
2:53 AM,41.0,30.9,67,30.36,10.0,Calm,Calm,-,N/A,,Clear,0,2012-11-18 08:53:00
3:53 AM,41.0,30.9,67,30.34,10.0,Calm,Calm,-,N/A,,Clear,0,2012-11-18 09:53:00
4:53 AM,39.9,30.9,70,30.34,10.0,ENE,8.1,-,N/A,,Clear,60,2012-11-18 10:53:00
5:53 AM,39.9,30.9,70,30.34,10.0,ENE,5.8,-,N/A,,Clear,70,2012-11-18 11:53:00
6:53 AM,39.9,30.9,70,30.34,10.0,ENE,4.6,-,N/A,,Clear,70,2012-11-18 12:53:00
7:53 AM,41.0,33.1,73,30.35,10.0,ENE,5.8,-,N/A,,Clear,70,2012-11-18 13:53:00
8:53 AM,48.0,34.0,58,30.36,10.0,ENE,8.1,-,N/A,,Clear,70,2012-11-18 14:53:00
9:53 AM,53.1,35.1,50,30.35,10.0,East,5.8,-,N/A,,Clear,80,2012-11-18 15:53:00
10:53 AM,57.0,35.1,44,30.36,10.0,Variable,5.8,-,N/A,,Clear,0,2012-11-18 16:53:00
11:53 AM,59.0,35.1,41,30.32,10.0,ENE,5.8,-,N/A,,Clear,60,2012-11-18 17:53:00
12:53 PM,63.0,35.1,35,30.29,10.0,NE,6.9,-,N/A,,Clear,50,2012-11-18 18:53:00
1:53 PM,64.9,32.0,29,30.26,10.0,ESE,3.5,-,N/A,,Clear,110,2012-11-18 19:53:00
2:53 PM,66.9,32.0,27,30.24,10.0,ESE,5.8,-,N/A,,Clear,120,2012-11-18 20:53:00
3:53 PM,66.0,32.0,28,30.24,10.0,SE,9.2,-,N/A,,Clear,130,2012-11-18 21:53:00
4:53 PM,63.0,32.0,31,30.23,10.0,ESE,4.6,-,N/A,,Clear,120,2012-11-18 22:53:00
5:53 PM,57.9,33.1,39,30.23,10.0,East,3.5,-,N/A,,Clear,90,2012-11-18 23:53:00
6:53 PM,59.0,34.0,39,30.24,10.0,Calm,Calm,-,N/A,,Clear,0,2012-11-19 00:53:00
7:53 PM,55.9,35.1,45,30.25,10.0,East,3.5,-,N/A,,Clear,80,2012-11-19 01:53:00
8:53 PM,54.0,37.0,53,30.27,10.0,ENE,4.6,-,N/A,,Clear,60,2012-11-19 02:53:00
9:53 PM,51.1,37.0,59,30.26,10.0,ENE,4.6,-,N/A,,Clear,60,2012-11-19 03:53:00
10:53 PM,50.0,37.9,63,30.25,10.0,NE,4.6,-,N/A,,Clear,50,2012-11-19 04:53:00
11:53 PM,50.0,39.0,66,30.25,10.0,NE,6.9,-,N/A,,Clear,50,2012-11-19 05:53:00